PWSweather.com
Personal Weather Stations
Station Observations
VPOKROGLO
Kal Nad Kanalom, PrimorskaSI

Kal Nad KanalomPrimorskaSI

Lat: 46.072, Lon: 13.734

Elevation: 2526

Station Type: WS-2355

http://www.okroglovreme.com

High Low Average
Temperature 54.9°F12.7°F 35.2°F1.8°F 42.2°F5.7°F
Dew Point 29.7°F-1.3°F 16.3°F-8.7°F 21.7°F-5.7°F
Winds 5.7 mph SSW9.2 mph SSW Calm Calm 1.3 mph 2.1 mph
Wind Gusts 9.8 mph15.8 mph -- 3.2 mph5.1 mph
Humidity 58% 33% 44%
Pressure 30.65 in1037.90 in 30.59 in1035.90 in -
Precipitation 0.00 in0.00 in - -
Hour Temp Dew Point Humidity Winds Wind Gusts Pressure Precip Precip Rate Daily Precip Total
12:00 AM 35.8°F2.1°C 22.4°F-5.3°C 58% 2.5 mph NNW4.0 kmh NNW 4.5 mph7.2 kmh 30.64 in1037.6 mb 0.00 in0.0 mm 0.00 in0.0 mm 0.00 in0.0 mm
12:15 AM 35.6°F2.0°C 22.3°F-5.4°C 58% 0.3 mph NNE0.5 kmh NNE 2.7 mph4.3 kmh 30.64 in1037.6 mb 0.00 in0.0 mm 0.00 in0.0 mm 0.00 in0.0 mm
12:30 AM 35.4°F1.9°C 22.1°F-5.5°C 58% Calm Calm -- 30.64 in1037.6 mb 0.00 in0.0 mm 0.00 in0.0 mm 0.00 in0.0 mm
12:45 AM 35.2°F1.8°C 21.9°F-5.6°C 58% 0.7 mph NNE1.1 kmh NNE 2.0 mph3.2 kmh 30.64 in1037.6 mb 0.00 in0.0 mm 0.00 in0.0 mm 0.00 in0.0 mm
01:00 AM 35.4°F1.9°C 22.1°F-5.5°C 58% Calm Calm -- 30.64 in1037.6 mb 0.00 in0.0 mm 0.00 in0.0 mm 0.00 in0.0 mm
01:15 AM 35.4°F1.9°C 21.7°F-5.7°C 57% Calm Calm -- 30.65 in1037.9 mb 0.00 in0.0 mm 0.00 in0.0 mm 0.00 in0.0 mm
01:30 AM 35.4°F1.9°C 21.3°F-5.9°C 56% 0.8 mph NNE1.3 kmh NNE 4.7 mph7.6 kmh 30.64 in1037.6 mb 0.00 in0.0 mm 0.00 in0.0 mm 0.00 in0.0 mm
01:45 AM 35.4°F1.9°C 21.3°F-5.9°C 56% Calm Calm 0.9 mph1.4 kmh 30.65 in1037.9 mb 0.00 in0.0 mm 0.00 in0.0 mm 0.00 in0.0 mm
02:00 AM 36.3°F2.4°C 21.2°F-6.0°C 54% 0.6 mph NNE1.0 kmh NNE 2.5 mph4.0 kmh 30.65 in1037.9 mb 0.00 in0.0 mm 0.00 in0.0 mm 0.00 in0.0 mm
02:15 AM 39.2°F4.0°C 21.1°F-6.1°C 48% 1.7 mph NNE2.7 kmh NNE 3.4 mph5.5 kmh 30.64 in1037.6 mb 0.00 in0.0 mm 0.00 in0.0 mm 0.00 in0.0 mm
02:30 AM 39.4°F4.1°C 20.3°F-6.5°C 46% 0.7 mph NNE1.1 kmh NNE 2.2 mph3.5 kmh 30.64 in1037.6 mb 0.00 in0.0 mm 0.00 in0.0 mm 0.00 in0.0 mm
02:45 AM 38.1°F3.4°C 19.6°F-6.9°C 47% 0.7 mph NNE1.1 kmh NNE 2.0 mph3.2 kmh 30.64 in1037.6 mb 0.00 in0.0 mm 0.00 in0.0 mm 0.00 in0.0 mm
03:00 AM 38.8°F3.8°C 19.3°F-7.1°C 45% 0.2 mph NNE0.3 kmh NNE 1.3 mph2.1 kmh 30.64 in1037.6 mb 0.00 in0.0 mm 0.00 in0.0 mm 0.00 in0.0 mm
03:15 AM 37.4°F3.0°C 19.0°F-7.2°C 47% Calm Calm -- 30.64 in1037.6 mb 0.00 in0.0 mm 0.00 in0.0 mm 0.00 in0.0 mm
03:30 AM 38.5°F3.6°C 19.0°F-7.2°C 45% 2.1 mph NNE3.4 kmh NNE 2.9 mph4.7 kmh 30.63 in1037.3 mb 0.00 in0.0 mm 0.00 in0.0 mm 0.00 in0.0 mm
03:45 AM 40.6°F4.8°C 19.9°F-6.7°C 43% 1.0 mph NNE1.6 kmh NNE 2.5 mph4.0 kmh 30.63 in1037.3 mb 0.00 in0.0 mm 0.00 in0.0 mm 0.00 in0.0 mm
04:00 AM 39.6°F4.2°C 18.3°F-7.6°C 42% Calm Calm -- 30.62 in1036.9 mb 0.00 in0.0 mm 0.00 in0.0 mm 0.00 in0.0 mm
04:15 AM 39.6°F4.2°C 18.3°F-7.6°C 42% Calm Calm 1.3 mph2.1 kmh 30.62 in1036.9 mb 0.00 in0.0 mm 0.00 in0.0 mm 0.00 in0.0 mm
04:30 AM 39.9°F4.4°C 18.1°F-7.7°C 41% 0.1 mph NNE0.2 kmh NNE 1.3 mph2.1 kmh 30.62 in1036.9 mb 0.00 in0.0 mm 0.00 in0.0 mm 0.00 in0.0 mm
04:45 AM 40.3°F4.6°C 17.8°F-7.9°C 40% 0.2 mph NNE0.3 kmh NNE 2.0 mph3.2 kmh 30.61 in1036.6 mb 0.00 in0.0 mm 0.00 in0.0 mm 0.00 in0.0 mm
05:00 AM 39.0°F3.9°C 17.3°F-8.2°C 41% 0.1 mph NNE0.2 kmh NNE 1.1 mph1.8 kmh 30.62 in1036.9 mb 0.00 in0.0 mm 0.00 in0.0 mm 0.00 in0.0 mm
05:15 AM 39.9°F4.4°C 17.5°F-8.1°C 40% Calm Calm -- 30.62 in1036.9 mb 0.00 in0.0 mm 0.00 in0.0 mm 0.00 in0.0 mm
05:30 AM 40.5°F4.7°C 17.4°F-8.1°C 39% Calm Calm -- 30.62 in1036.9 mb 0.00 in0.0 mm 0.00 in0.0 mm 0.00 in0.0 mm
05:45 AM 39.9°F4.4°C 16.9°F-8.4°C 39% Calm Calm 1.1 mph1.8 kmh 30.62 in1036.9 mb 0.00 in0.0 mm 0.00 in0.0 mm 0.00 in0.0 mm
06:00 AM 40.3°F4.6°C 16.7°F-8.5°C 38% Calm Calm -- 30.62 in1036.9 mb 0.00 in0.0 mm 0.00 in0.0 mm 0.00 in0.0 mm
06:15 AM 41.5°F5.3°C 17.2°F-8.2°C 37% 0.3 mph NNE0.5 kmh NNE 1.3 mph2.1 kmh 30.63 in1037.3 mb 0.00 in0.0 mm 0.00 in0.0 mm 0.00 in0.0 mm
06:30 AM 41.2°F5.1°C 16.8°F-8.4°C 37% Calm Calm 0.9 mph1.4 kmh 30.62 in1036.9 mb 0.00 in0.0 mm 0.00 in0.0 mm 0.00 in0.0 mm
06:45 AM 40.3°F4.6°C 16.7°F-8.5°C 38% 0.1 mph NNE0.2 kmh NNE 1.1 mph1.8 kmh 30.62 in1036.9 mb 0.00 in0.0 mm 0.00 in0.0 mm 0.00 in0.0 mm
07:00 AM 40.3°F4.6°C 16.7°F-8.5°C 38% 0.1 mph NNE0.2 kmh NNE 1.1 mph1.8 kmh 30.62 in1036.9 mb 0.00 in0.0 mm 0.00 in0.0 mm 0.00 in0.0 mm
07:15 AM 39.9°F4.4°C 16.3°F-8.7°C 38% 1.4 mph NNE2.3 kmh NNE 2.5 mph4.0 kmh 30.63 in1037.3 mb 0.00 in0.0 mm 0.00 in0.0 mm 0.00 in0.0 mm
07:30 AM 40.6°F4.8°C 17.0°F-8.3°C 38% 0.1 mph NNE0.2 kmh NNE 1.1 mph1.8 kmh 30.63 in1037.3 mb 0.00 in0.0 mm 0.00 in0.0 mm 0.00 in0.0 mm
07:45 AM 40.6°F4.8°C 17.0°F-8.3°C 38% 0.1 mph NNE0.2 kmh NNE 1.1 mph1.8 kmh 30.63 in1037.3 mb 0.00 in0.0 mm 0.00 in0.0 mm 0.00 in0.0 mm
08:00 AM 39.9°F4.4°C 16.3°F-8.7°C 38% 0.3 mph NNE0.5 kmh NNE 1.6 mph2.6 kmh 30.64 in1037.6 mb 0.00 in0.0 mm 0.00 in0.0 mm 0.00 in0.0 mm
08:15 AM 40.5°F4.7°C 16.8°F-8.4°C 38% Calm Calm 0.7 mph1.1 kmh 30.63 in1037.3 mb 0.00 in0.0 mm 0.00 in0.0 mm 0.00 in0.0 mm
08:30 AM 41.2°F5.1°C 16.8°F-8.4°C 37% Calm Calm 0.9 mph1.4 kmh 30.63 in1037.3 mb 0.00 in0.0 mm 0.00 in0.0 mm 0.00 in0.0 mm
08:45 AM 40.6°F4.8°C 16.4°F-8.7°C 37% Calm Calm -- 30.64 in1037.6 mb 0.00 in0.0 mm 0.00 in0.0 mm 0.00 in0.0 mm
09:00 AM 42.1°F5.6°C 17.6°F-8.0°C 37% Calm Calm 0.9 mph1.4 kmh 30.64 in1037.6 mb 0.00 in0.0 mm 0.00 in0.0 mm 0.00 in0.0 mm
09:15 AM 47.1°F8.4°C 19.5°F-6.9°C 33% Calm Calm -- 30.64 in1037.6 mb 0.00 in0.0 mm 0.00 in0.0 mm 0.00 in0.0 mm
09:30 AM 50.2°F10.1°C 22.9°F-5.1°C 34% Calm Calm -- 30.64 in1037.6 mb 0.00 in0.0 mm 0.00 in0.0 mm 0.00 in0.0 mm
09:45 AM 48.0°F8.9°C 20.9°F-6.2°C 34% Calm Calm 1.3 mph2.1 kmh 30.64 in1037.6 mb 0.00 in0.0 mm 0.00 in0.0 mm 0.00 in0.0 mm
10:00 AM 50.2°F10.1°C 23.5°F-4.7°C 35% 0.4 mph SSW0.6 kmh SSW 2.2 mph3.5 kmh 30.64 in1037.6 mb 0.00 in0.0 mm 0.00 in0.0 mm 0.00 in0.0 mm
10:15 AM 49.1°F9.5°C 22.6°F-5.2°C 35% 0.9 mph S1.4 kmh S 4.7 mph7.6 kmh 30.64 in1037.6 mb 0.00 in0.0 mm 0.00 in0.0 mm 0.00 in0.0 mm
10:30 AM 52.2°F11.2°C 26.0°F-3.3°C 36% 2.1 mph SW3.4 kmh SW 4.5 mph7.2 kmh 30.64 in1037.6 mb 0.00 in0.0 mm 0.00 in0.0 mm 0.00 in0.0 mm
10:45 AM 51.4°F10.8°C 25.3°F-3.7°C 36% 3.3 mph SSW5.3 kmh SSW 6.3 mph10.1 kmh 30.64 in1037.6 mb 0.00 in0.0 mm 0.00 in0.0 mm 0.00 in0.0 mm
11:00 AM 53.8°F12.1°C 28.1°F-2.2°C 37% 2.8 mph SW4.5 kmh SW 6.0 mph9.7 kmh 30.63 in1037.3 mb 0.00 in0.0 mm 0.00 in0.0 mm 0.00 in0.0 mm
11:15 AM 54.0°F12.2°C 26.9°F-2.8°C 35% 2.3 mph SW3.7 kmh SW 5.1 mph8.2 kmh 30.63 in1037.3 mb 0.00 in0.0 mm 0.00 in0.0 mm 0.00 in0.0 mm
11:30 AM 52.3°F11.3°C 27.5°F-2.5°C 38% 4.7 mph SSW7.6 kmh SSW 7.8 mph12.6 kmh 30.63 in1037.3 mb 0.00 in0.0 mm 0.00 in0.0 mm 0.00 in0.0 mm
11:45 AM 54.7°F12.6°C 28.2°F-2.1°C 36% 3.3 mph SW5.3 kmh SW 6.9 mph11.1 kmh 30.63 in1037.3 mb 0.00 in0.0 mm 0.00 in0.0 mm 0.00 in0.0 mm
12:00 PM 54.5°F12.5°C 28.7°F-1.8°C 37% 4.3 mph SW6.9 kmh SW 8.9 mph14.3 kmh 30.62 in1036.9 mb 0.00 in0.0 mm 0.00 in0.0 mm 0.00 in0.0 mm
12:15 PM 54.9°F12.7°C 29.1°F-1.6°C 37% 4.1 mph SW6.6 kmh SW 7.6 mph12.2 kmh 30.62 in1036.9 mb 0.00 in0.0 mm 0.00 in0.0 mm 0.00 in0.0 mm
12:30 PM 54.9°F12.7°C 29.7°F-1.3°C 38% 3.8 mph SW6.1 kmh SW 6.7 mph10.8 kmh 30.62 in1036.9 mb 0.00 in0.0 mm 0.00 in0.0 mm 0.00 in0.0 mm
12:45 PM 54.5°F12.5°C 28.1°F-2.2°C 36% 5.2 mph SW8.4 kmh SW 9.8 mph15.8 kmh 30.62 in1036.9 mb 0.00 in0.0 mm 0.00 in0.0 mm 0.00 in0.0 mm
01:00 PM 50.7°F10.4°C 26.6°F-3.0°C 39% 5.1 mph SSW8.2 kmh SSW 9.8 mph15.8 kmh 30.61 in1036.6 mb 0.00 in0.0 mm 0.00 in0.0 mm 0.00 in0.0 mm
01:15 PM 53.8°F12.1°C 28.7°F-1.8°C 38% 4.1 mph SW6.6 kmh SW 6.7 mph10.8 kmh 30.60 in1036.2 mb 0.00 in0.0 mm 0.00 in0.0 mm 0.00 in0.0 mm
01:30 PM 54.3°F12.4°C 29.2°F-1.6°C 38% 4.2 mph SW6.8 kmh SW 7.6 mph12.2 kmh 30.61 in1036.6 mb 0.00 in0.0 mm 0.00 in0.0 mm 0.00 in0.0 mm
01:45 PM 52.9°F11.6°C 27.3°F-2.6°C 37% 5.7 mph SSW9.2 kmh SSW 9.6 mph15.4 kmh 30.61 in1036.6 mb 0.00 in0.0 mm 0.00 in0.0 mm 0.00 in0.0 mm
02:00 PM 49.8°F9.9°C 26.4°F-3.1°C 40% 3.3 mph SW5.3 kmh SW 5.8 mph9.3 kmh 30.61 in1036.6 mb 0.00 in0.0 mm 0.00 in0.0 mm 0.00 in0.0 mm
02:15 PM 46.6°F8.1°C 24.7°F-4.1°C 42% 4.8 mph S7.7 kmh S 7.6 mph12.2 kmh 30.61 in1036.6 mb 0.00 in0.0 mm 0.00 in0.0 mm 0.00 in0.0 mm
02:30 PM 47.3°F8.5°C 25.3°F-3.7°C 42% 4.8 mph S7.7 kmh S 9.8 mph15.8 kmh 30.61 in1036.6 mb 0.00 in0.0 mm 0.00 in0.0 mm 0.00 in0.0 mm
02:45 PM 46.6°F8.1°C 25.3°F-3.7°C 43% 3.5 mph SSW5.6 kmh SSW 5.8 mph9.3 kmh 30.61 in1036.6 mb 0.00 in0.0 mm 0.00 in0.0 mm 0.00 in0.0 mm
03:00 PM 46.0°F7.8°C 24.8°F-4.0°C 43% 1.6 mph SSW2.6 kmh SSW 4.0 mph6.4 kmh 30.61 in1036.6 mb 0.00 in0.0 mm 0.00 in0.0 mm 0.00 in0.0 mm
03:15 PM 44.8°F7.1°C 24.2°F-4.3°C 44% 1.7 mph SSW2.7 kmh SSW 3.8 mph6.1 kmh 30.60 in1036.2 mb 0.00 in0.0 mm 0.00 in0.0 mm 0.00 in0.0 mm
03:30 PM 44.2°F6.8°C 23.7°F-4.6°C 44% 0.1 mph SSW0.2 kmh SSW 1.3 mph2.1 kmh 30.60 in1036.2 mb 0.00 in0.0 mm 0.00 in0.0 mm 0.00 in0.0 mm
03:45 PM 43.3°F6.3°C 23.4°F-4.8°C 45% 0.3 mph SSW0.5 kmh SSW 1.6 mph2.6 kmh 30.60 in1036.2 mb 0.00 in0.0 mm 0.00 in0.0 mm 0.00 in0.0 mm
04:00 PM 43.0°F6.1°C 23.6°F-4.7°C 46% 0.7 mph SSW1.1 kmh SSW 2.0 mph3.2 kmh 30.61 in1036.6 mb 0.00 in0.0 mm 0.00 in0.0 mm 0.00 in0.0 mm
04:15 PM 42.4°F5.8°C 23.6°F-4.7°C 47% 0.6 mph SSW1.0 kmh SSW 1.8 mph2.9 kmh 30.61 in1036.6 mb 0.00 in0.0 mm 0.00 in0.0 mm 0.00 in0.0 mm
04:30 PM 41.7°F5.4°C 22.9°F-5.1°C 47% Calm Calm -- 30.61 in1036.6 mb 0.00 in0.0 mm 0.00 in0.0 mm 0.00 in0.0 mm
04:45 PM 40.6°F4.8°C 22.0°F-5.6°C 47% 0.6 mph SSW1.0 kmh SSW 4.3 mph6.9 kmh 30.61 in1036.6 mb 0.00 in0.0 mm 0.00 in0.0 mm 0.00 in0.0 mm
05:00 PM 39.9°F4.4°C 21.3°F-5.9°C 47% 1.6 mph SSW2.6 kmh SSW 4.0 mph6.4 kmh 30.61 in1036.6 mb 0.00 in0.0 mm 0.00 in0.0 mm 0.00 in0.0 mm
05:15 PM 40.5°F4.7°C 22.3°F-5.4°C 48% 3.7 mph SSW6.0 kmh SSW 5.4 mph8.7 kmh 30.61 in1036.6 mb 0.00 in0.0 mm 0.00 in0.0 mm 0.00 in0.0 mm
05:30 PM 40.3°F4.6°C 22.6°F-5.2°C 49% 0.7 mph SSW1.1 kmh SSW 2.5 mph4.0 kmh 30.61 in1036.6 mb 0.00 in0.0 mm 0.00 in0.0 mm 0.00 in0.0 mm
05:45 PM 39.9°F4.4°C 22.3°F-5.4°C 49% 0.8 mph SSW1.3 kmh SSW 2.9 mph4.7 kmh 30.61 in1036.6 mb 0.00 in0.0 mm 0.00 in0.0 mm 0.00 in0.0 mm
06:00 PM 39.4°F4.1°C 22.3°F-5.4°C 50% 0.3 mph SSW0.5 kmh SSW 2.2 mph3.5 kmh 30.61 in1036.6 mb 0.00 in0.0 mm 0.00 in0.0 mm 0.00 in0.0 mm
06:15 PM 39.6°F4.2°C 21.5°F-5.8°C 48% 2.1 mph SSW3.4 kmh SSW 4.9 mph7.9 kmh 30.61 in1036.6 mb 0.00 in0.0 mm 0.00 in0.0 mm 0.00 in0.0 mm
06:30 PM 39.0°F3.9°C 21.0°F-6.1°C 48% 1.3 mph SSW2.1 kmh SSW 3.6 mph5.8 kmh 30.61 in1036.6 mb 0.00 in0.0 mm 0.00 in0.0 mm 0.00 in0.0 mm
06:45 PM 39.0°F3.9°C 21.0°F-6.1°C 48% 1.9 mph SSW3.1 kmh SSW 3.1 mph5.0 kmh 30.61 in1036.6 mb 0.00 in0.0 mm 0.00 in0.0 mm 0.00 in0.0 mm
07:00 PM 39.0°F3.9°C 20.5°F-6.4°C 47% 1.5 mph SSW2.4 kmh SSW 3.1 mph5.0 kmh 30.61 in1036.6 mb 0.00 in0.0 mm 0.00 in0.0 mm 0.00 in0.0 mm
07:15 PM 38.8°F3.8°C 20.3°F-6.5°C 47% 1.0 mph SSW1.6 kmh SSW 2.5 mph4.0 kmh 30.61 in1036.6 mb 0.00 in0.0 mm 0.00 in0.0 mm 0.00 in0.0 mm
07:30 PM 39.0°F3.9°C 20.5°F-6.4°C 47% 0.2 mph SSW0.3 kmh SSW 2.2 mph3.5 kmh 30.61 in1036.6 mb 0.00 in0.0 mm 0.00 in0.0 mm 0.00 in0.0 mm
07:45 PM 38.8°F3.8°C 21.3°F-5.9°C 49% 0.7 mph SSW1.1 kmh SSW 2.9 mph4.7 kmh 30.61 in1036.6 mb 0.00 in0.0 mm 0.00 in0.0 mm 0.00 in0.0 mm
08:00 PM 38.5°F3.6°C 21.9°F-5.6°C 51% 1.5 mph SSW2.4 kmh SSW 4.9 mph7.9 kmh 30.61 in1036.6 mb 0.00 in0.0 mm 0.00 in0.0 mm 0.00 in0.0 mm
08:15 PM 38.3°F3.5°C 22.2°F-5.4°C 52% 1.1 mph SSW1.8 kmh SSW 2.9 mph4.7 kmh 30.61 in1036.6 mb 0.00 in0.0 mm 0.00 in0.0 mm 0.00 in0.0 mm
08:30 PM 38.3°F3.5°C 22.2°F-5.4°C 52% 1.1 mph SSW1.8 kmh SSW 3.8 mph6.1 kmh 30.61 in1036.6 mb 0.00 in0.0 mm 0.00 in0.0 mm 0.00 in0.0 mm
08:45 PM 37.9°F3.3°C 21.9°F-5.6°C 52% Calm Calm 1.3 mph2.1 kmh 30.61 in1036.6 mb 0.00 in0.0 mm 0.00 in0.0 mm 0.00 in0.0 mm
09:00 PM 38.5°F3.6°C 21.9°F-5.6°C 51% 1.0 mph SSW1.6 kmh SSW 2.7 mph4.3 kmh 30.61 in1036.6 mb 0.00 in0.0 mm 0.00 in0.0 mm 0.00 in0.0 mm
09:15 PM 38.3°F3.5°C 21.3°F-5.9°C 50% 0.9 mph SSW1.4 kmh SSW 3.4 mph5.5 kmh 30.60 in1036.2 mb 0.00 in0.0 mm 0.00 in0.0 mm 0.00 in0.0 mm
09:30 PM 38.3°F3.5°C 20.8°F-6.2°C 49% 0.6 mph SSW1.0 kmh SSW 3.4 mph5.5 kmh 30.60 in1036.2 mb 0.00 in0.0 mm 0.00 in0.0 mm 0.00 in0.0 mm
09:45 PM 38.1°F3.4°C 20.6°F-6.3°C 49% 0.5 mph SSW0.8 kmh SSW 3.4 mph5.5 kmh 30.60 in1036.2 mb 0.00 in0.0 mm 0.00 in0.0 mm 0.00 in0.0 mm
10:00 PM 37.9°F3.3°C 20.9°F-6.2°C 50% 0.2 mph SSW0.3 kmh SSW 1.3 mph2.1 kmh 30.59 in1035.9 mb 0.00 in0.0 mm 0.00 in0.0 mm 0.00 in0.0 mm
10:15 PM 37.6°F3.1°C 21.1°F-6.1°C 51% 0.8 mph SSW1.3 kmh SSW 3.1 mph5.0 kmh 30.59 in1035.9 mb 0.00 in0.0 mm 0.00 in0.0 mm 0.00 in0.0 mm
10:30 PM 37.8°F3.2°C 21.2°F-6.0°C 51% 0.4 mph SSW0.6 kmh SSW 2.0 mph3.2 kmh 30.59 in1035.9 mb 0.00 in0.0 mm 0.00 in0.0 mm 0.00 in0.0 mm
10:45 PM 37.6°F3.1°C 21.1°F-6.1°C 51% Calm Calm -- 30.60 in1036.2 mb 0.00 in0.0 mm 0.00 in0.0 mm 0.00 in0.0 mm
11:00 PM 37.8°F3.2°C 21.2°F-6.0°C 51% 1.2 mph SSW1.9 kmh SSW 4.3 mph6.9 kmh 30.60 in1036.2 mb 0.00 in0.0 mm 0.00 in0.0 mm 0.00 in0.0 mm
11:15 PM 38.3°F3.5°C 21.3°F-5.9°C 50% 0.8 mph SSW1.3 kmh SSW 2.7 mph4.3 kmh 30.59 in1035.9 mb 0.00 in0.0 mm 0.00 in0.0 mm 0.00 in0.0 mm
11:30 PM 37.9°F3.3°C 21.4°F-5.9°C 51% 1.8 mph SSW2.9 kmh SSW 4.7 mph7.6 kmh 30.59 in1035.9 mb 0.00 in0.0 mm 0.00 in0.0 mm 0.00 in0.0 mm
11:45 PM 37.2°F2.9°C 21.2°F-6.0°C 52% 2.3 mph SSW3.7 kmh SSW 9.8 mph15.8 kmh 30.59 in1035.9 mb 0.00 in0.0 mm 0.00 in0.0 mm 0.00 in0.0 mm